createdAt,value
2022-09-23T00:01:20.968Z,5.50
2022-09-23T00:03:49.535Z,6.22
2022-09-23T00:06:20.094Z,5.88
2022-09-23T00:08:49.828Z,5.20
2022-09-23T00:11:26.501Z,4.95
2022-09-23T00:13:56.935Z,4.90
2022-09-23T00:16:28.672Z,5.07
2022-09-23T00:18:56.801Z,5.05
2022-09-23T00:21:25.446Z,4.90
2022-09-23T00:23:53.554Z,5.57
2022-09-23T00:26:22.931Z,5.15
2022-09-23T00:28:51.092Z,5.07
2022-09-23T00:31:26.217Z,4.97
2022-09-23T00:34:01.900Z,5.07
2022-09-23T00:36:30.743Z,5.15
2022-09-23T00:38:58.937Z,5.00
2022-09-23T00:41:27.245Z,5.03
2022-09-23T00:44:00.013Z,4.97
2022-09-23T00:46:37.578Z,4.97
2022-09-23T00:49:14.603Z,5.00
2022-09-23T00:51:50.840Z,5.03
2022-09-23T00:54:19.647Z,5.18
2022-09-23T00:56:47.241Z,4.88
2022-09-23T00:59:17.238Z,4.93
2022-09-23T01:01:45.003Z,5.07
2022-09-23T01:04:13.026Z,4.75
2022-09-23T01:06:41.221Z,5.35
2022-09-23T01:09:08.727Z,5.38
2022-09-23T01:12:18.893Z,5.70
2022-09-23T01:15:01.153Z,5.90
2022-09-23T01:17:42.774Z,4.90
2022-09-23T01:20:28.201Z,4.80
2022-09-23T01:23:09.442Z,4.95
2022-09-23T01:26:01.508Z,5.50
2022-09-23T01:28:55.128Z,5.05
2022-09-23T01:31:43.835Z,4.90
2022-09-23T01:34:24.472Z,5.18
2022-09-23T01:37:15.718Z,4.93
2022-09-23T01:40:02.122Z,5.27
2022-09-23T01:42:44.803Z,4.97
2022-09-23T01:45:43.782Z,5.28
2022-09-23T01:48:34.765Z,4.97
2022-09-23T01:51:27.299Z,5.00
2022-09-23T01:54:06.080Z,5.43
2022-09-23T01:56:42.684Z,5.20
2022-09-23T01:59:18.865Z,5.78
2022-09-23T02:01:51.225Z,6.10
2022-09-23T02:04:30.734Z,5.72
2022-09-23T02:07:20.617Z,6.50
2022-09-23T02:10:06.260Z,5.97
2022-09-23T02:12:36.136Z,6.60
2022-09-23T02:15:09.020Z,7.45
2022-09-23T02:17:54.038Z,7.30
2022-09-23T02:20:28.999Z,7.23
2022-09-23T02:23:13.343Z,7.63
2022-09-23T02:25:54.634Z,6.78
2022-09-23T02:28:42.283Z,7.15
2022-09-23T02:31:23.222Z,6.82
2022-09-23T02:33:57.479Z,6.57
2022-09-23T02:36:49.863Z,6.53
2022-09-23T02:39:22.143Z,6.10
2022-09-23T02:42:02.587Z,6.05
2022-09-23T02:44:32.836Z,6.38
2022-09-23T02:47:01.093Z,7.37
2022-09-23T02:49:30.657Z,6.18
2022-09-23T02:52:05.010Z,6.32
2022-09-23T02:54:34.184Z,5.90
2022-09-23T02:57:09.351Z,6.20
2022-09-23T02:59:38.797Z,6.60
2022-09-23T03:02:15.110Z,6.55
2022-09-23T03:05:01.913Z,6.30
2022-09-23T03:08:07.876Z,6.97
2022-09-23T03:10:56.803Z,5.38
2022-09-23T03:13:56.339Z,4.87
2022-09-23T03:16:44.592Z,5.18
2022-09-23T03:19:36.135Z,5.60
2022-09-23T03:22:12.992Z,5.55
2022-09-23T03:24:51.821Z,5.82
2022-09-23T03:27:26.156Z,5.07
2022-09-23T03:29:56.077Z,6.13
2022-09-23T03:32:28.220Z,6.57
2022-09-23T03:34:58.740Z,5.57
2022-09-23T03:37:57.042Z,6.35
2022-09-23T03:40:30.433Z,5.77
2022-09-23T03:42:59.363Z,6.55
2022-09-23T03:45:32.144Z,6.47
2022-09-23T03:48:02.202Z,6.40
2022-09-23T03:50:30.128Z,6.60
2022-09-23T03:52:57.691Z,5.70
2022-09-23T03:55:25.277Z,6.10
2022-09-23T03:57:52.829Z,6.20
2022-09-23T04:00:20.374Z,7.75
2022-09-23T04:02:48.491Z,8.38
2022-09-23T04:05:18.231Z,8.70
2022-09-23T04:07:45.996Z,8.80
2022-09-23T04:10:13.448Z,9.25
2022-09-23T04:12:40.871Z,8.40
2022-09-23T04:15:08.710Z,7.57
2022-09-23T04:17:37.769Z,7.13
2022-09-23T04:20:05.926Z,7.57
2022-09-23T04:22:34.448Z,7.50
2022-09-23T04:25:02.333Z,6.53
2022-09-23T04:27:35.489Z,6.85
2022-09-23T04:30:05.433Z,6.70
2022-09-23T04:32:32.932Z,6.93
2022-09-23T04:35:00.557Z,7.18
2022-09-23T04:37:29.705Z,7.35
2022-09-23T04:39:57.259Z,7.45
2022-09-23T04:42:25.067Z,6.87
2022-09-23T04:44:52.758Z,7.20
2022-09-23T04:47:20.349Z,6.40
2022-09-23T04:49:48.545Z,5.60
2022-09-23T04:52:16.677Z,5.90
2022-09-23T04:54:44.156Z,5.90
2022-09-23T04:57:11.689Z,5.43
2022-09-23T04:59:39.137Z,7.03
2022-09-23T05:02:06.636Z,6.88
2022-09-23T05:04:34.209Z,7.45
2022-09-23T05:07:03.510Z,6.57
2022-09-23T05:09:31.388Z,6.85
2022-09-23T05:11:59.004Z,6.35
2022-09-23T05:14:26.513Z,6.72
2022-09-23T05:16:53.935Z,6.68
2022-09-23T05:19:21.604Z,6.80
2022-09-23T05:21:49.100Z,6.57
2022-09-23T05:24:17.042Z,6.65
2022-09-23T05:26:44.519Z,6.97
2022-09-23T05:29:13.765Z,7.40
2022-09-23T05:31:41.399Z,6.23
2022-09-23T05:34:09.051Z,6.95
2022-09-23T05:36:39.243Z,7.20
2022-09-23T05:39:08.844Z,6.80
2022-09-23T05:41:39.325Z,8.02
2022-09-23T05:44:08.035Z,7.80
2022-09-23T05:46:36.312Z,7.47
2022-09-23T05:49:05.847Z,6.95
2022-09-23T05:51:35.962Z,7.25
2022-09-23T05:54:04.544Z,6.35
2022-09-23T05:56:33.758Z,6.37
2022-09-23T05:59:02.771Z,6.70
2022-09-23T06:01:34.200Z,6.65
2022-09-23T06:04:03.959Z,6.85
2022-09-23T06:06:38.044Z,6.43
2022-09-23T06:09:06.695Z,6.77
2022-09-23T06:11:36.023Z,6.65
2022-09-23T06:14:04.818Z,6.88
2022-09-23T06:16:36.784Z,7.57
2022-09-23T06:19:07.432Z,8.00
2022-09-23T06:21:37.936Z,7.87
2022-09-23T06:24:07.024Z,6.93
2022-09-23T06:26:35.705Z,8.32
2022-09-23T06:29:08.935Z,8.25
2022-09-23T06:31:36.590Z,9.00
2022-09-23T06:34:11.664Z,9.10
2022-09-23T06:36:44.557Z,7.60
2022-09-23T06:39:16.401Z,7.50
2022-09-23T06:41:45.587Z,8.00
2022-09-23T06:44:16.386Z,9.07
2022-09-23T06:46:46.589Z,8.63
2022-09-23T06:49:14.265Z,8.85
2022-09-23T06:51:42.432Z,9.48
2022-09-23T06:54:11.381Z,8.40
2022-09-23T06:56:39.821Z,7.32
2022-09-23T06:59:10.797Z,7.53
2022-09-23T07:01:38.587Z,7.32
2022-09-23T07:04:08.031Z,6.93
2022-09-23T07:06:36.168Z,7.25
2022-09-23T07:09:06.114Z,8.02
2022-09-23T07:11:34.883Z,9.53
2022-09-23T07:14:02.601Z,8.40
2022-09-23T07:16:30.404Z,8.57
2022-09-23T07:18:58.073Z,8.38
2022-09-23T07:21:25.637Z,8.57
2022-09-23T07:23:54.125Z,8.63
2022-09-23T07:26:23.764Z,10.43
2022-09-23T07:28:57.004Z,9.00
2022-09-23T07:31:37.894Z,8.95
2022-09-23T07:34:08.712Z,8.77
2022-09-23T07:36:37.708Z,7.97
2022-09-23T07:39:05.696Z,8.98
2022-09-23T07:41:34.257Z,8.80
2022-09-23T07:44:03.278Z,10.68
2022-09-23T07:46:34.248Z,10.88
2022-09-23T07:49:05.532Z,9.97
2022-09-23T07:51:39.054Z,11.80
2022-09-23T07:54:11.181Z,10.98
2022-09-23T07:56:39.060Z,12.25
2022-09-23T07:59:09.415Z,12.60
2022-09-23T08:01:45.036Z,11.67
2022-09-23T08:04:17.983Z,11.43
2022-09-23T08:06:48.731Z,11.55
2022-09-23T08:09:18.366Z,11.20
2022-09-23T08:11:46.446Z,10.80
2022-09-23T08:14:19.379Z,11.83
2022-09-23T08:16:47.928Z,12.55
2022-09-23T08:19:16.315Z,13.63
2022-09-23T08:21:46.919Z,11.50
2022-09-23T08:24:19.619Z,8.93
2022-09-23T08:26:48.930Z,8.03
2022-09-23T08:29:19.109Z,8.75
2022-09-23T08:31:47.780Z,7.68
2022-09-23T08:34:16.452Z,7.82
2022-09-23T08:36:47.998Z,8.68
2022-09-23T08:39:21.323Z,8.53
2022-09-23T08:42:01.007Z,9.23
2022-09-23T08:44:46.298Z,7.45
2022-09-23T08:47:28.187Z,8.80
2022-09-23T08:50:15.645Z,8.30
2022-09-23T08:52:55.790Z,7.70
2022-09-23T08:55:53.821Z,9.55
2022-09-23T08:58:36.429Z,9.90
2022-09-23T09:01:13.544Z,9.85
2022-09-23T09:04:02.409Z,10.27
2022-09-23T09:15:07.865Z,10.10
2022-09-23T09:17:48.697Z,9.07
2022-09-23T09:20:19.300Z,8.82
2022-09-23T09:23:00.120Z,9.43
2022-09-23T09:25:40.187Z,8.50
2022-09-23T09:28:20.450Z,9.57
2022-09-23T09:30:53.848Z,8.75
2022-09-23T09:33:28.453Z,10.95
2022-09-23T09:36:09.940Z,8.73
2022-09-23T09:38:38.552Z,9.25
2022-09-23T09:53:46.067Z,9.43
2022-09-23T09:56:16.973Z,9.57
2022-09-23T09:58:54.325Z,10.38
2022-09-23T10:01:25.206Z,10.63
2022-09-23T10:03:57.019Z,10.82
2022-09-23T10:06:29.208Z,11.00
2022-09-23T10:09:02.657Z,12.02
2022-09-23T10:11:31.381Z,11.77
2022-09-23T10:14:17.787Z,10.70
2022-09-23T10:16:49.959Z,11.55
2022-09-23T10:19:28.932Z,12.37
2022-09-23T10:22:05.533Z,12.88
2022-09-23T10:24:37.290Z,12.25
2022-09-23T10:27:14.463Z,12.52
2022-09-23T10:29:48.014Z,12.38
2022-09-23T10:32:44.099Z,11.87
2022-09-23T10:35:18.106Z,12.50
2022-09-23T10:37:56.177Z,10.70
2022-09-23T10:40:53.510Z,11.07
2022-09-23T10:44:09.510Z,11.02
2022-09-23T10:46:39.163Z,11.07
2022-09-23T10:49:10.201Z,11.32
2022-09-23T10:52:11.833Z,10.57
2022-09-23T10:55:12.857Z,10.93
2022-09-23T10:57:46.285Z,12.45
2022-09-23T11:00:25.761Z,10.43
2022-09-23T11:03:09.975Z,11.45
2022-09-23T11:06:11.598Z,11.10
2022-09-23T11:08:51.199Z,10.50
2022-09-23T11:11:41.532Z,9.75
2022-09-23T11:14:27.846Z,10.43
2022-09-23T11:17:15.093Z,11.95
2022-09-23T11:20:08.626Z,10.80
2022-09-23T11:23:07.410Z,9.48
2022-09-23T11:25:47.409Z,11.02
2022-09-23T11:29:11.175Z,9.13
2022-09-23T11:31:49.190Z,9.80
2022-09-23T11:34:55.196Z,11.05
2022-09-23T11:37:32.406Z,9.50
2022-09-23T11:40:19.855Z,10.68
2022-09-23T11:42:58.454Z,9.93
2022-09-23T11:45:31.878Z,10.70
2022-09-23T11:48:13.041Z,9.63
2022-09-23T11:50:50.579Z,9.48
2022-09-23T11:53:31.011Z,10.32
2022-09-23T11:56:07.978Z,9.83
2022-09-23T11:58:50.411Z,9.75
2022-09-23T12:01:45.398Z,9.25
2022-09-23T12:04:25.760Z,9.65
2022-09-23T12:07:04.439Z,8.93
2022-09-23T12:09:57.322Z,9.10
2022-09-23T12:12:35.479Z,9.10
2022-09-23T12:15:33.799Z,8.20
2022-09-23T12:18:04.480Z,9.48
2022-09-23T12:20:37.975Z,8.77
2022-09-23T12:23:36.944Z,8.87
2022-09-23T12:26:18.096Z,8.82
2022-09-23T12:28:50.106Z,7.72
2022-09-23T12:31:22.352Z,7.65
2022-09-23T12:33:54.638Z,8.48
2022-09-23T12:36:27.087Z,7.90
2022-09-23T12:39:33.315Z,8.48
2022-09-23T12:42:03.757Z,7.28
2022-09-23T12:44:39.804Z,7.88
2022-09-23T12:47:25.098Z,7.28
2022-09-23T12:50:01.484Z,7.57
2022-09-23T12:52:33.657Z,7.60
2022-09-23T12:55:25.860Z,7.72
2022-09-23T12:57:53.484Z,6.90
2022-09-23T13:00:20.816Z,6.82
2022-09-23T13:02:48.431Z,6.77
2022-09-23T13:05:41.255Z,7.35
2022-09-23T13:08:20.602Z,7.18
2022-09-23T13:10:54.588Z,7.15
2022-09-23T13:13:39.327Z,7.03
2022-09-23T13:16:32.199Z,7.30
2022-09-23T13:19:01.014Z,7.72
2022-09-23T13:21:45.893Z,6.68
2022-09-23T13:24:13.255Z,8.07
2022-09-23T13:26:46.061Z,7.38
2022-09-23T13:29:28.563Z,7.20
2022-09-23T13:32:00.358Z,7.45
2022-09-23T13:34:32.502Z,7.10
2022-09-23T13:37:20.200Z,7.40
2022-09-23T13:39:50.262Z,7.80
2022-09-23T13:42:27.757Z,7.60
2022-09-23T13:45:00.703Z,7.00
2022-09-23T13:47:30.890Z,6.75
2022-09-23T13:49:58.441Z,7.00
2022-09-23T13:52:33.205Z,7.07
2022-09-23T13:55:00.642Z,6.53
2022-09-23T13:57:34.302Z,7.07
2022-09-23T14:00:17.317Z,6.88
2022-09-23T14:02:47.197Z,6.38
2022-09-23T14:05:23.464Z,6.05
2022-09-23T14:07:56.727Z,6.43
2022-09-23T14:10:27.947Z,6.88
2022-09-23T14:12:56.752Z,6.43
2022-09-23T14:15:24.477Z,6.05
2022-09-23T14:18:02.699Z,6.60
2022-09-23T14:20:30.220Z,5.20
2022-09-23T14:23:27.400Z,5.88
2022-09-23T14:25:56.170Z,5.78
2022-09-23T14:28:26.663Z,5.85
2022-09-23T14:30:58.631Z,5.80
2022-09-23T14:33:30.779Z,5.77
2022-09-23T14:36:07.964Z,4.85
2022-09-23T14:38:51.311Z,5.20
2022-09-23T14:41:24.775Z,4.95
2022-09-23T14:43:59.554Z,4.10
2022-09-23T14:46:38.324Z,3.87
2022-09-23T14:49:15.355Z,3.80
2022-09-23T14:51:52.070Z,3.00
2022-09-23T14:54:41.897Z,3.05
2022-09-23T14:57:26.226Z,3.30
2022-09-23T14:59:59.485Z,3.00
2022-09-23T15:02:32.890Z,2.50
2022-09-23T15:05:15.809Z,2.90
2022-09-23T15:07:55.832Z,2.97
2022-09-23T15:10:28.994Z,2.78
2022-09-23T15:13:07.441Z,2.13
2022-09-23T15:15:35.969Z,2.60
2022-09-23T15:18:11.811Z,2.30
2022-09-23T15:20:39.517Z,2.10
2022-09-23T15:23:07.084Z,2.15
2022-09-23T15:25:40.538Z,2.43
2022-09-23T15:28:10.964Z,2.28
2022-09-23T15:30:39.771Z,2.10
2022-09-23T15:33:09.273Z,2.38
2022-09-23T15:35:36.869Z,2.38
2022-09-23T15:38:04.407Z,2.17
2022-09-23T15:40:35.486Z,2.05
2022-09-23T15:43:20.620Z,1.80
2022-09-23T15:45:58.249Z,1.85
2022-09-23T15:48:30.194Z,2.20
2022-09-23T15:50:59.310Z,2.00
2022-09-23T15:53:28.261Z,2.00
2022-09-23T15:55:55.995Z,2.08
2022-09-23T15:58:23.964Z,2.30
2022-09-23T16:00:56.580Z,2.22
2022-09-23T16:03:28.778Z,1.73
2022-09-23T16:06:00.296Z,2.20
2022-09-23T16:08:29.029Z,2.13
2022-09-23T16:10:56.674Z,1.95
2022-09-23T16:13:24.285Z,1.73
2022-09-23T16:15:51.769Z,2.00
2022-09-23T16:18:19.367Z,1.98
2022-09-23T16:20:47.952Z,1.80
2022-09-23T16:23:36.087Z,1.77
2022-09-23T16:26:23.004Z,1.83
2022-09-23T16:28:54.163Z,1.90
2022-09-23T16:31:25.452Z,1.85
2022-09-23T16:33:54.020Z,1.40
2022-09-23T16:36:31.447Z,1.55
2022-09-23T16:39:00.687Z,1.40
2022-09-23T16:41:31.350Z,2.00
2022-09-23T16:44:01.091Z,1.35
2022-09-23T16:46:29.516Z,1.60
2022-09-23T16:48:58.151Z,1.35
2022-09-23T16:51:29.030Z,1.45
2022-09-23T16:54:02.306Z,1.63
2022-09-23T16:56:31.180Z,1.42
2022-09-23T16:58:58.632Z,1.55
2022-09-23T17:01:46.978Z,1.77
2022-09-23T17:04:16.048Z,1.60
2022-09-23T17:06:50.703Z,1.50
2022-09-23T17:09:20.316Z,1.45
2022-09-23T17:11:58.102Z,1.40
2022-09-23T17:14:26.353Z,1.25
2022-09-23T17:16:53.790Z,1.63
2022-09-23T17:19:21.366Z,1.33
2022-09-23T17:21:48.842Z,1.10
2022-09-23T17:24:19.208Z,1.00
2022-09-23T17:26:52.842Z,1.17
2022-09-23T17:29:20.985Z,1.23
2022-09-23T17:31:48.515Z,1.40
2022-09-23T17:34:16.643Z,1.00
2022-09-23T17:36:44.047Z,1.40
2022-09-23T17:39:11.663Z,1.40
2022-09-23T17:41:39.340Z,1.30
2022-09-23T17:44:08.295Z,1.20
2022-09-23T17:46:35.763Z,0.95
2022-09-23T17:49:04.248Z,0.90
2022-09-23T17:51:32.025Z,0.80
2022-09-23T17:53:59.583Z,0.93
2022-09-23T17:56:30.162Z,0.80
2022-09-23T17:59:02.033Z,0.80
2022-09-23T18:01:29.993Z,0.80
2022-09-23T18:04:00.482Z,0.80
2022-09-23T18:06:32.144Z,0.60
2022-09-23T18:09:06.959Z,0.90
2022-09-23T18:11:45.343Z,1.15
2022-09-23T18:14:20.221Z,0.80
2022-09-23T18:16:51.543Z,0.80
2022-09-23T18:19:21.890Z,0.75
2022-09-23T18:21:51.992Z,0.67
2022-09-23T18:24:35.502Z,0.68
2022-09-23T18:27:06.704Z,0.73
2022-09-23T18:29:36.978Z,0.80
2022-09-23T18:32:04.591Z,0.70
2022-09-23T18:34:35.068Z,0.80
2022-09-23T18:37:02.487Z,0.82
2022-09-23T18:39:29.918Z,0.77
2022-09-23T18:41:57.372Z,0.70
2022-09-23T18:44:25.742Z,0.70
2022-09-23T18:46:53.411Z,0.60
2022-09-23T18:49:39.424Z,0.60
2022-09-23T18:52:06.894Z,0.55
2022-09-23T18:54:34.714Z,0.43
2022-09-23T18:57:02.182Z,0.60
2022-09-23T18:59:30.056Z,0.60
2022-09-23T19:01:57.867Z,0.60
2022-09-23T19:04:26.633Z,0.70
2022-09-23T19:06:58.107Z,0.60
2022-09-23T19:09:25.773Z,0.60
2022-09-23T19:11:53.638Z,0.50
2022-09-23T19:14:24.287Z,0.40
2022-09-23T19:16:52.184Z,0.50
2022-09-23T19:19:19.968Z,0.32
2022-09-23T19:21:49.719Z,0.40
2022-09-23T19:24:20.265Z,0.30
2022-09-23T19:26:48.767Z,0.40
2022-09-23T19:29:19.775Z,0.40
2022-09-23T19:31:47.766Z,0.30
2022-09-23T19:34:23.984Z,0.30
2022-09-23T19:36:51.926Z,0.30
2022-09-23T19:39:24.821Z,0.30
2022-09-23T19:41:56.060Z,0.30
2022-09-23T19:44:25.371Z,0.20
2022-09-23T19:46:56.346Z,0.30
2022-09-23T19:49:25.346Z,0.40
2022-09-23T19:51:56.155Z,0.30
2022-09-23T19:54:26.767Z,0.30
2022-09-23T19:56:57.128Z,0.40
2022-09-23T19:59:26.585Z,0.50
2022-09-23T20:01:54.829Z,0.50
2022-09-23T20:04:22.634Z,0.43
2022-09-23T20:06:50.151Z,0.30
2022-09-23T20:09:17.768Z,0.50
2022-09-23T20:11:50.747Z,0.50
2022-09-23T20:14:19.586Z,0.70
2022-09-23T20:16:52.133Z,0.45
2022-09-23T20:19:19.618Z,0.40
2022-09-23T20:22:08.799Z,0.40
2022-09-23T20:24:36.282Z,0.80
2022-09-23T20:27:09.453Z,0.50
2022-09-23T20:29:37.572Z,0.63
2022-09-23T20:32:05.249Z,0.60
2022-09-23T20:34:33.855Z,0.60
2022-09-23T20:37:01.372Z,0.60
2022-09-23T20:39:28.925Z,0.60
2022-09-23T20:41:56.467Z,0.73
2022-09-23T20:44:24.073Z,0.70
2022-09-23T20:46:52.093Z,0.70
2022-09-23T20:49:21.007Z,0.60
2022-09-23T20:51:49.228Z,0.87
2022-09-23T20:54:20.718Z,0.90
2022-09-23T20:56:48.203Z,0.90
2022-09-23T20:59:18.103Z,0.93
2022-09-23T21:01:45.984Z,1.00
2022-09-23T21:04:13.463Z,0.87
2022-09-23T21:06:40.996Z,1.15
2022-09-23T21:09:09.052Z,0.98
2022-09-23T21:11:37.612Z,1.50
2022-09-23T21:14:05.171Z,1.70
2022-09-23T21:16:32.772Z,1.40
2022-09-23T21:19:00.444Z,1.60
2022-09-23T21:21:27.912Z,1.70
2022-09-23T21:24:07.060Z,1.55
2022-09-23T21:26:47.487Z,1.67
2022-09-23T21:29:14.963Z,1.50
2022-09-23T21:31:42.747Z,1.23
2022-09-23T21:34:11.745Z,1.50
2022-09-23T21:36:45.372Z,1.30
2022-09-23T21:39:13.298Z,1.50
2022-09-23T21:41:40.829Z,1.30
2022-09-23T21:44:08.757Z,1.33
2022-09-23T21:46:37.105Z,1.67
2022-09-23T21:49:05.518Z,1.40
2022-09-23T21:51:38.711Z,1.75
2022-09-23T21:54:12.606Z,1.63
2022-09-23T21:56:41.291Z,1.20
2022-09-23T21:59:08.951Z,1.38
2022-09-23T22:01:39.800Z,1.40
2022-09-23T22:04:18.748Z,1.05
2022-09-23T22:06:46.941Z,1.00
2022-09-23T22:09:20.972Z,1.40
2022-09-23T22:12:09.883Z,1.17
2022-09-23T22:14:39.260Z,1.40
2022-09-23T22:17:08.743Z,1.30
2022-09-23T22:19:44.311Z,1.70
2022-09-23T22:22:16.268Z,1.60
2022-09-23T22:24:45.578Z,1.83
2022-09-23T22:27:16.920Z,1.77
2022-09-23T22:30:02.698Z,1.83
2022-09-23T22:32:52.915Z,1.90
2022-09-23T22:35:22.542Z,1.90
2022-09-23T22:37:50.025Z,1.80
2022-09-23T22:40:18.078Z,1.83
2022-09-23T22:42:46.086Z,2.20
2022-09-23T22:45:14.015Z,2.07
2022-09-23T22:47:44.328Z,1.67
2022-09-23T22:50:14.177Z,1.80
2022-09-23T22:52:41.656Z,1.60
2022-09-23T22:55:09.819Z,1.48
2022-09-23T22:57:38.190Z,1.77
2022-09-23T23:00:07.570Z,1.35
2022-09-23T23:02:35.297Z,1.35
2022-09-23T23:05:02.839Z,0.90
2022-09-23T23:07:32.420Z,1.10
2022-09-23T23:09:59.931Z,0.83
2022-09-23T23:12:27.421Z,0.60
2022-09-23T23:14:55.085Z,0.70
2022-09-23T23:17:22.626Z,0.77
2022-09-23T23:19:51.149Z,0.82
2022-09-23T23:22:18.805Z,0.60
2022-09-23T23:24:50.237Z,0.80
2022-09-23T23:27:17.681Z,0.90
2022-09-23T23:29:45.122Z,0.50
2022-09-23T23:32:12.654Z,0.75
2022-09-23T23:34:40.177Z,0.63
2022-09-23T23:37:07.637Z,0.60
2022-09-23T23:39:35.290Z,0.70
2022-09-23T23:42:03.970Z,0.52
2022-09-23T23:44:31.781Z,0.50
2022-09-23T23:46:59.299Z,0.60
2022-09-23T23:49:26.908Z,0.50
2022-09-23T23:51:54.566Z,0.60
2022-09-23T23:54:22.030Z,0.75
2022-09-23T23:56:49.560Z,0.70
2022-09-23T23:59:18.074Z,0.70
